createdAt,value
2023-05-08T00:00:17.600Z,7.63
2023-05-08T00:02:44.752Z,8.07
2023-05-08T00:05:11.462Z,7.72
2023-05-08T00:07:38.580Z,7.47
2023-05-08T00:10:06.254Z,7.88
2023-05-08T00:12:33.285Z,7.38
2023-05-08T00:15:00.373Z,8.70
2023-05-08T00:17:27.420Z,8.57
2023-05-08T00:19:54.471Z,8.20
2023-05-08T00:22:21.570Z,7.83
2023-05-08T00:24:48.318Z,8.50
2023-05-08T00:27:15.469Z,8.00
2023-05-08T00:29:42.663Z,8.53
2023-05-08T00:32:09.733Z,8.20
2023-05-08T00:34:36.969Z,8.37
2023-05-08T00:37:04.131Z,8.97
2023-05-08T00:39:33.123Z,8.87
2023-05-08T00:42:00.552Z,8.73
2023-05-08T00:44:27.866Z,8.80
2023-05-08T00:46:55.130Z,8.37
2023-05-08T00:49:22.932Z,7.77
2023-05-08T00:51:51.828Z,8.27
2023-05-08T00:54:18.779Z,8.83
2023-05-08T00:56:46.068Z,9.27
2023-05-08T00:59:15.014Z,8.37
2023-05-08T01:01:42.397Z,8.17
2023-05-08T01:04:09.402Z,8.53
2023-05-08T01:06:37.725Z,8.57
2023-05-08T01:09:04.974Z,7.53
2023-05-08T01:11:38.243Z,9.30
2023-05-08T01:14:05.219Z,7.50
2023-05-08T01:16:38.469Z,7.63
2023-05-08T01:19:17.865Z,8.00
2023-05-08T01:22:01.169Z,8.10
2023-05-08T01:24:43.911Z,8.57
2023-05-08T01:27:17.129Z,10.93
2023-05-08T01:29:55.754Z,9.60
2023-05-08T01:32:25.532Z,8.20
2023-05-08T01:34:58.059Z,9.20
2023-05-08T01:37:35.156Z,8.43
2023-05-08T01:40:21.221Z,8.70
2023-05-08T01:43:11.424Z,8.87
2023-05-08T01:45:45.179Z,11.37
2023-05-08T01:48:13.811Z,7.63
2023-05-08T01:50:46.598Z,8.70
2023-05-08T01:53:20.526Z,8.40
2023-05-08T01:55:48.722Z,7.13
2023-05-08T01:58:15.877Z,8.27
2023-05-08T02:00:43.649Z,8.20
2023-05-08T02:03:11.473Z,8.93
2023-05-08T02:05:38.620Z,8.67
2023-05-08T02:08:06.192Z,8.80
2023-05-08T02:10:33.617Z,8.90
2023-05-08T02:13:02.107Z,9.53
2023-05-08T02:15:29.993Z,8.73
2023-05-08T02:17:58.355Z,11.10
2023-05-08T02:20:26.255Z,8.50
2023-05-08T02:22:53.314Z,9.00
2023-05-08T02:25:20.528Z,8.83
2023-05-08T02:27:48.778Z,9.70
2023-05-08T02:30:16.840Z,9.33
2023-05-08T02:32:48.326Z,9.10
2023-05-08T02:35:16.611Z,9.23
2023-05-08T02:37:44.731Z,9.10
2023-05-08T02:40:13.325Z,9.90
2023-05-08T02:42:40.705Z,9.60
2023-05-08T02:45:08.242Z,9.37
2023-05-08T02:47:41.247Z,9.03
2023-05-08T02:50:20.877Z,9.13
2023-05-08T02:53:08.276Z,8.27
2023-05-08T02:55:44.585Z,8.73
2023-05-08T02:58:14.175Z,8.27
2023-05-08T03:00:59.408Z,8.73
2023-05-08T03:03:35.582Z,8.53
2023-05-08T03:06:03.014Z,8.50
2023-05-08T03:08:34.614Z,8.10
2023-05-08T03:13:30.100Z,7.63
2023-05-08T03:16:01.591Z,7.40
2023-05-08T03:18:33.901Z,7.32
2023-05-08T03:21:01.171Z,6.60
2023-05-08T03:23:29.578Z,7.30
2023-05-08T03:25:58.041Z,7.10
2023-05-08T03:28:25.435Z,7.00
2023-05-08T03:30:55.863Z,6.20
2023-05-08T03:33:23.630Z,6.83
2023-05-08T03:35:51.428Z,5.77
2023-05-08T03:38:19.058Z,6.20
2023-05-08T03:40:46.530Z,6.23
2023-05-08T03:43:14.057Z,5.63
2023-05-08T03:45:41.140Z,6.07
2023-05-08T03:48:08.766Z,7.40
2023-05-08T03:50:36.522Z,6.90
2023-05-08T03:53:03.836Z,6.67
2023-05-08T03:55:30.739Z,6.77
2023-05-08T03:58:03.730Z,6.60
2023-05-08T04:00:49.448Z,6.80
2023-05-08T04:03:16.442Z,7.30
2023-05-08T04:05:58.173Z,7.07
2023-05-08T04:08:30.486Z,7.28
2023-05-08T04:11:23.695Z,7.80
2023-05-08T04:13:54.274Z,7.03
2023-05-08T04:16:24.229Z,7.13
2023-05-08T04:18:52.584Z,7.87
2023-05-08T04:21:20.969Z,7.40
2023-05-08T04:23:50.376Z,7.37
2023-05-08T04:26:20.086Z,7.72
2023-05-08T04:28:47.410Z,6.93
2023-05-08T04:31:14.974Z,6.83
2023-05-08T04:33:43.205Z,7.47
2023-05-08T04:36:13.766Z,8.83
2023-05-08T04:38:44.123Z,7.03
2023-05-08T04:41:11.319Z,7.23
2023-05-08T04:43:38.281Z,7.43
2023-05-08T04:46:06.507Z,7.73
2023-05-08T04:48:34.331Z,8.07
2023-05-08T04:51:01.555Z,7.23
2023-05-08T04:53:28.666Z,6.77
2023-05-08T04:55:55.299Z,6.28
2023-05-08T04:58:22.449Z,6.60
2023-05-08T05:00:49.109Z,6.95
2023-05-08T05:03:16.301Z,6.40
2023-05-08T05:05:43.360Z,6.50
2023-05-08T05:08:10.592Z,5.35
2023-05-08T05:10:38.781Z,6.25
2023-05-08T05:13:06.051Z,5.07
2023-05-08T05:15:32.798Z,5.28
2023-05-08T05:17:59.770Z,5.20
2023-05-08T05:20:26.954Z,4.20
2023-05-08T05:22:53.619Z,4.00
2023-05-08T05:25:22.828Z,3.95
2023-05-08T05:27:53.804Z,3.70
2023-05-08T05:30:21.593Z,3.97
2023-05-08T05:32:48.613Z,4.32
2023-05-08T05:35:15.742Z,4.15
2023-05-08T05:37:58.169Z,3.40
2023-05-08T05:40:51.228Z,2.85
2023-05-08T05:43:22.147Z,3.45
2023-05-08T05:45:49.306Z,3.50
2023-05-08T05:48:18.525Z,3.25
2023-05-08T05:50:45.806Z,3.58
2023-05-08T05:53:13.327Z,4.20
2023-05-08T05:55:41.580Z,3.30
2023-05-08T05:58:10.116Z,3.10
2023-05-08T06:00:36.748Z,3.20
2023-05-08T06:03:04.278Z,2.72
2023-05-08T06:05:31.428Z,2.88
2023-05-08T06:07:58.723Z,3.40
2023-05-08T06:10:26.050Z,2.50
2023-05-08T06:12:53.635Z,3.10
2023-05-08T06:15:20.913Z,3.03
2023-05-08T06:17:48.047Z,3.00
2023-05-08T06:20:14.690Z,2.55
2023-05-08T06:22:42.356Z,3.28
2023-05-08T06:25:10.136Z,2.80
2023-05-08T06:27:37.270Z,2.65
2023-05-08T06:30:05.182Z,2.60
2023-05-08T06:32:31.942Z,2.75
2023-05-08T06:34:59.076Z,2.20
2023-05-08T06:37:26.217Z,2.63
2023-05-08T06:40:03.797Z,2.38
2023-05-08T06:42:37.453Z,2.40
2023-05-08T06:45:05.194Z,2.28
2023-05-08T06:47:32.368Z,2.30
2023-05-08T06:50:00.724Z,2.10
2023-05-08T06:52:27.955Z,2.30
2023-05-08T06:54:54.797Z,1.95
2023-05-08T06:57:21.806Z,2.65
2023-05-08T07:00:10.746Z,2.40
2023-05-08T07:02:38.694Z,2.08
2023-05-08T07:05:06.812Z,2.45
2023-05-08T07:10:43.647Z,2.08
2023-05-08T07:13:10.754Z,2.47
2023-05-08T07:15:39.110Z,2.03
2023-05-08T07:18:06.187Z,2.25
2023-05-08T07:20:33.198Z,2.42
2023-05-08T07:23:00.178Z,2.72
2023-05-08T07:25:27.256Z,2.13
2023-05-08T07:27:53.921Z,2.17
2023-05-08T07:30:20.984Z,2.17
2023-05-08T07:32:48.251Z,2.58
2023-05-08T07:35:15.794Z,2.60
2023-05-08T07:37:43.219Z,3.00
2023-05-08T07:40:09.963Z,2.42
2023-05-08T07:42:43.544Z,2.08
2023-05-08T07:45:11.151Z,1.85
2023-05-08T07:47:39.017Z,2.10
2023-05-08T07:50:06.419Z,2.58
2023-05-08T07:52:33.127Z,2.78
2023-05-08T07:55:00.212Z,2.70
2023-05-08T07:57:27.390Z,2.65
2023-05-08T07:59:54.307Z,2.45
2023-05-08T08:02:21.532Z,2.75
2023-05-08T08:04:48.187Z,2.45
2023-05-08T08:07:15.310Z,2.17
2023-05-08T08:09:42.458Z,2.05
2023-05-08T08:12:09.493Z,2.35
2023-05-08T08:14:36.623Z,2.00
2023-05-08T08:17:03.299Z,2.35
2023-05-08T08:19:30.350Z,2.28
2023-05-08T08:21:57.538Z,2.67
2023-05-08T08:24:24.441Z,2.83
2023-05-08T08:26:51.423Z,2.00
2023-05-08T08:29:18.688Z,3.55
2023-05-08T08:31:46.188Z,2.88
2023-05-08T08:34:13.381Z,1.90
2023-05-08T08:36:40.140Z,2.20
2023-05-08T08:39:11.001Z,2.30
2023-05-08T08:41:39.835Z,3.05
2023-05-08T08:44:06.918Z,2.40
2023-05-08T08:46:33.765Z,2.08
2023-05-08T08:49:03.332Z,2.13
2023-05-08T08:51:38.807Z,1.95
2023-05-08T08:54:09.873Z,1.80
2023-05-08T08:56:41.264Z,2.45
2023-05-08T08:59:08.923Z,2.15
2023-05-08T09:01:37.505Z,1.98
2023-05-08T09:04:05.964Z,2.28
2023-05-08T09:06:36.674Z,2.08
2023-05-08T09:09:04.292Z,2.00
2023-05-08T09:11:31.021Z,2.20
2023-05-08T09:13:58.785Z,1.80
2023-05-08T09:16:26.211Z,2.33
2023-05-08T09:18:52.844Z,2.20
2023-05-08T09:21:20.171Z,1.90
2023-05-08T09:24:03.408Z,2.28
2023-05-08T09:26:32.781Z,2.20
2023-05-08T09:29:18.304Z,2.13
2023-05-08T09:31:46.398Z,1.92
2023-05-08T09:34:28.486Z,2.30
2023-05-08T09:37:16.488Z,2.42
2023-05-08T09:39:45.853Z,2.10
2023-05-08T09:42:13.017Z,2.50
2023-05-08T09:44:53.093Z,2.10
2023-05-08T09:47:33.429Z,2.00
2023-05-08T09:50:03.005Z,2.00
2023-05-08T09:52:30.209Z,6.40
2023-05-08T09:55:03.126Z,8.38
2023-05-08T09:57:30.778Z,3.25
2023-05-08T10:00:16.142Z,2.28
2023-05-08T10:02:55.370Z,1.92
2023-05-08T10:05:28.672Z,1.88
2023-05-08T10:07:56.806Z,2.58
2023-05-08T10:10:27.310Z,2.38
2023-05-08T10:12:55.191Z,2.07
2023-05-08T10:15:34.311Z,2.20
2023-05-08T10:18:07.348Z,4.47
2023-05-08T10:20:34.766Z,3.38
2023-05-08T10:23:04.246Z,1.98
2023-05-08T10:25:32.538Z,2.00
2023-05-08T10:28:18.698Z,1.98
2023-05-08T10:30:50.163Z,4.13
2023-05-08T10:35:45.666Z,2.58
2023-05-08T10:38:12.770Z,2.25
2023-05-08T10:40:40.160Z,2.13
2023-05-08T10:43:08.142Z,2.95
2023-05-08T10:45:35.218Z,3.15
2023-05-08T10:48:07.868Z,1.92
2023-05-08T10:50:53.290Z,1.95
2023-05-08T10:53:41.775Z,1.67
2023-05-08T10:56:08.393Z,2.42
2023-05-08T10:58:39.692Z,2.47
2023-05-08T11:01:09.872Z,2.17
2023-05-08T11:03:43.932Z,2.63
2023-05-08T11:06:14.167Z,1.92
2023-05-08T11:08:47.109Z,1.90
2023-05-08T11:11:19.872Z,2.83
2023-05-08T11:13:59.824Z,2.30
2023-05-08T11:16:50.759Z,2.33
2023-05-08T11:19:23.089Z,2.05
2023-05-08T11:22:08.815Z,1.88
2023-05-08T11:24:41.504Z,2.25
2023-05-08T11:27:08.646Z,2.38
2023-05-08T11:29:36.712Z,2.20
2023-05-08T11:32:05.852Z,4.15
2023-05-08T11:34:45.215Z,2.42
2023-05-08T11:37:16.902Z,2.33
2023-05-08T11:39:45.552Z,2.10
2023-05-08T11:42:30.948Z,2.00
2023-05-08T11:45:05.577Z,2.72
2023-05-08T11:47:45.596Z,2.28
2023-05-08T11:50:13.343Z,2.60
2023-05-08T11:52:46.414Z,1.80
2023-05-08T11:55:16.118Z,2.53
2023-05-08T11:57:42.632Z,2.25
2023-05-08T12:00:13.834Z,2.35
2023-05-08T12:05:09.102Z,2.25
2023-05-08T12:07:47.166Z,2.08
2023-05-08T12:10:17.795Z,2.35
2023-05-08T12:12:45.529Z,2.20
2023-05-08T12:15:13.365Z,2.17
2023-05-08T12:17:40.586Z,1.98
2023-05-08T12:20:14.997Z,2.42
2023-05-08T12:22:43.341Z,2.15
2023-05-08T12:25:14.732Z,2.40
2023-05-08T12:27:41.727Z,1.98
2023-05-08T12:30:09.821Z,2.30
2023-05-08T12:32:40.153Z,1.95
2023-05-08T12:35:07.800Z,2.25
2023-05-08T12:37:35.169Z,2.28
2023-05-08T12:40:01.988Z,2.40
2023-05-08T12:42:44.939Z,2.38
2023-05-08T12:45:22.490Z,2.20
2023-05-08T12:47:50.181Z,2.63
2023-05-08T12:50:17.726Z,2.65
2023-05-08T12:52:45.072Z,3.05
2023-05-08T12:55:25.163Z,2.33
2023-05-08T12:57:59.686Z,2.85
2023-05-08T13:00:26.445Z,2.13
2023-05-08T13:02:54.813Z,2.50
2023-05-08T13:05:23.098Z,2.60
2023-05-08T13:07:51.795Z,2.50
2023-05-08T13:10:22.993Z,2.50
2023-05-08T13:12:50.800Z,2.78
2023-05-08T13:15:18.037Z,2.30
2023-05-08T13:17:44.649Z,2.22
2023-05-08T13:20:12.038Z,2.50
2023-05-08T13:22:39.165Z,2.15
2023-05-08T13:25:06.287Z,2.30
2023-05-08T13:27:33.327Z,2.90
2023-05-08T13:30:00.320Z,2.85
2023-05-08T13:32:27.369Z,1.70
2023-05-08T13:34:57.694Z,2.08
2023-05-08T13:37:26.919Z,2.08
2023-05-08T13:39:53.593Z,2.00
2023-05-08T13:42:20.178Z,2.42
2023-05-08T13:44:46.818Z,3.25
2023-05-08T13:47:13.771Z,2.90
2023-05-08T13:49:40.369Z,2.45
2023-05-08T13:52:07.267Z,2.75
2023-05-08T13:54:34.407Z,2.28
2023-05-08T13:57:03.386Z,1.90
2023-05-08T13:59:31.542Z,1.90
2023-05-08T14:01:58.232Z,2.80
2023-05-08T14:04:25.320Z,3.75
2023-05-08T14:06:52.544Z,6.22
2023-05-08T14:09:19.367Z,3.00
2023-05-08T14:11:46.372Z,2.80
2023-05-08T14:14:12.909Z,2.15
2023-05-08T14:16:40.074Z,2.13
2023-05-08T14:19:07.194Z,2.17
2023-05-08T14:21:35.024Z,1.92
2023-05-08T14:24:02.186Z,2.50
2023-05-08T14:26:28.799Z,2.38
2023-05-08T14:28:55.916Z,2.28
2023-05-08T14:31:22.915Z,2.20
2023-05-08T14:33:49.599Z,1.73
2023-05-08T14:36:16.579Z,2.03
2023-05-08T14:38:43.507Z,2.47
2023-05-08T14:41:10.569Z,3.92
2023-05-08T14:43:38.040Z,2.35
2023-05-08T14:46:04.702Z,3.50
2023-05-08T14:48:31.903Z,2.15
2023-05-08T14:50:59.059Z,2.22
2023-05-08T14:53:26.322Z,1.83
2023-05-08T14:55:53.804Z,2.10
2023-05-08T14:58:20.724Z,1.95
2023-05-08T15:00:47.292Z,2.03
2023-05-08T15:03:14.501Z,2.67
2023-05-08T15:05:41.425Z,2.15
2023-05-08T15:08:09.069Z,2.53
2023-05-08T15:10:35.980Z,2.30
2023-05-08T15:13:03.042Z,2.63
2023-05-08T15:15:30.180Z,2.80
2023-05-08T15:17:56.792Z,2.15
2023-05-08T15:20:23.643Z,2.00
2023-05-08T15:22:51.096Z,2.53
2023-05-08T15:25:18.311Z,3.70
2023-05-08T15:27:45.302Z,2.50
2023-05-08T15:30:12.203Z,2.20
2023-05-08T15:32:40.713Z,2.13
2023-05-08T15:35:08.035Z,3.08
2023-05-08T15:37:36.661Z,3.58
2023-05-08T15:40:03.990Z,2.33
2023-05-08T15:42:30.685Z,2.60
2023-05-08T15:44:58.433Z,2.78
2023-05-08T15:47:27.616Z,2.17
2023-05-08T15:49:54.571Z,3.13
2023-05-08T15:52:21.284Z,2.35
2023-05-08T15:54:47.925Z,2.70
2023-05-08T15:57:15.259Z,2.33
2023-05-08T15:59:42.390Z,2.10
2023-05-08T16:02:09.027Z,2.70
2023-05-08T16:04:36.349Z,2.05
2023-05-08T16:07:03.712Z,2.20
2023-05-08T16:09:30.777Z,2.40
2023-05-08T16:11:57.885Z,2.47
2023-05-08T16:14:24.873Z,2.35
2023-05-08T16:16:52.062Z,2.63
2023-05-08T16:19:19.094Z,2.33
2023-05-08T16:21:47.042Z,2.42
2023-05-08T16:24:14.355Z,3.00
2023-05-08T16:26:40.989Z,3.15
2023-05-08T16:29:07.975Z,3.00
2023-05-08T16:31:35.242Z,3.33
2023-05-08T16:34:02.068Z,3.00
2023-05-08T16:36:29.294Z,2.50
2023-05-08T16:38:56.432Z,3.45
2023-05-08T16:41:23.572Z,5.30
2023-05-08T16:43:53.897Z,2.35
2023-05-08T16:46:29.255Z,2.10
2023-05-08T16:48:56.998Z,2.47
2023-05-08T16:51:23.818Z,2.42
2023-05-08T16:53:50.877Z,2.17
2023-05-08T16:56:18.077Z,2.60
2023-05-08T16:58:44.705Z,2.42
2023-05-08T17:01:12.162Z,2.67
2023-05-08T17:03:39.223Z,2.60
2023-05-08T17:06:09.618Z,2.70
2023-05-08T17:08:36.727Z,2.70
2023-05-08T17:11:03.436Z,2.47
2023-05-08T17:13:30.679Z,3.83
2023-05-08T17:15:58.362Z,2.95
2023-05-08T17:18:25.444Z,4.10
2023-05-08T17:20:52.545Z,3.47
2023-05-08T17:23:19.165Z,2.35
2023-05-08T17:25:45.842Z,2.30
2023-05-08T17:28:12.962Z,2.25
2023-05-08T17:30:39.582Z,6.18
2023-05-08T17:33:07.593Z,11.82
2023-05-08T17:35:34.443Z,15.88
2023-05-08T17:38:01.636Z,15.98
2023-05-08T17:40:29.287Z,10.43
2023-05-08T17:42:56.477Z,5.25
2023-05-08T17:45:23.636Z,18.92
2023-05-08T17:47:50.561Z,30.80
2023-05-08T17:50:17.331Z,43.22
2023-05-08T17:52:44.473Z,39.35
2023-05-08T17:55:11.137Z,26.02
2023-05-08T17:57:38.171Z,34.22
2023-05-08T18:00:06.557Z,40.00
2023-05-08T18:02:33.233Z,87.53
2023-05-08T18:05:00.335Z,51.92
2023-05-08T18:07:26.953Z,42.67
2023-05-08T18:09:54.058Z,17.98
2023-05-08T18:12:21.077Z,3.60
2023-05-08T18:14:48.193Z,3.03
2023-05-08T18:17:19.788Z,3.55
2023-05-08T18:19:46.516Z,3.92
2023-05-08T18:22:13.995Z,5.82
2023-05-08T18:24:41.394Z,10.07
2023-05-08T18:27:08.840Z,14.57
2023-05-08T18:29:35.695Z,9.98
2023-05-08T18:32:02.871Z,18.83
2023-05-08T18:34:29.987Z,20.83
2023-05-08T18:36:58.174Z,18.67
2023-05-08T18:39:25.343Z,15.35
2023-05-08T18:41:52.384Z,10.68
2023-05-08T18:44:19.412Z,8.52
2023-05-08T18:46:46.293Z,6.05
2023-05-08T18:49:13.355Z,5.30
2023-05-08T18:51:40.367Z,4.07
2023-05-08T18:54:07.060Z,4.40
2023-05-08T18:56:34.763Z,4.40
2023-05-08T18:59:02.089Z,6.72
2023-05-08T19:01:29.613Z,4.60
2023-05-08T19:03:57.169Z,3.13
2023-05-08T19:06:24.407Z,4.45
2023-05-08T19:08:52.589Z,3.58
2023-05-08T19:11:20.033Z,3.90
2023-05-08T19:13:47.368Z,4.18
2023-05-08T19:16:14.109Z,5.80
2023-05-08T19:18:41.185Z,8.63
2023-05-08T19:21:08.239Z,4.00
2023-05-08T19:23:35.748Z,4.03
2023-05-08T19:26:02.524Z,3.63
2023-05-08T19:28:29.087Z,3.58
2023-05-08T19:30:56.268Z,3.85
2023-05-08T19:33:23.390Z,3.17
2023-05-08T19:35:50.518Z,3.55
2023-05-08T19:38:17.195Z,3.75
2023-05-08T19:40:55.773Z,3.88
2023-05-08T19:43:24.455Z,6.65
2023-05-08T19:45:51.318Z,3.65
2023-05-08T19:48:20.581Z,4.20
2023-05-08T19:50:47.883Z,4.25
2023-05-08T19:53:15.116Z,4.78
2023-05-08T19:55:42.209Z,8.18
2023-05-08T19:58:08.799Z,51.08
2023-05-08T20:00:36.068Z,36.75
2023-05-08T20:03:03.287Z,7.00
2023-05-08T20:05:30.852Z,6.53
2023-05-08T20:07:57.975Z,4.63
2023-05-08T20:10:25.125Z,6.63
2023-05-08T20:12:52.239Z,5.10
2023-05-08T20:15:19.405Z,4.60
2023-05-08T20:17:46.482Z,4.35
2023-05-08T20:20:14.086Z,5.05
2023-05-08T20:22:41.198Z,6.13
2023-05-08T20:25:08.784Z,4.40
2023-05-08T20:27:35.921Z,5.13
2023-05-08T20:30:03.067Z,5.00
2023-05-08T20:32:29.727Z,5.03
2023-05-08T20:34:56.883Z,6.28
2023-05-08T20:37:24.062Z,5.93
2023-05-08T20:39:50.740Z,7.07
2023-05-08T20:42:17.813Z,8.77
2023-05-08T20:44:44.454Z,8.50
2023-05-08T20:47:11.087Z,7.68
2023-05-08T20:49:38.273Z,7.30
2023-05-08T20:52:06.024Z,9.25
2023-05-08T20:54:33.154Z,7.20
2023-05-08T20:57:01.697Z,6.40
2023-05-08T20:59:28.371Z,5.50
2023-05-08T21:01:55.437Z,6.20
2023-05-08T21:04:22.616Z,6.55
2023-05-08T21:06:51.915Z,7.38
2023-05-08T21:09:19.375Z,6.00
2023-05-08T21:11:46.425Z,5.82
2023-05-08T21:14:13.492Z,6.88
2023-05-08T21:16:40.654Z,6.18
2023-05-08T21:19:07.574Z,6.00
2023-05-08T21:21:34.200Z,7.70
2023-05-08T21:24:01.271Z,7.75
2023-05-08T21:26:28.377Z,6.43
2023-05-08T21:28:55.376Z,5.75
2023-05-08T21:31:22.932Z,6.23
2023-05-08T21:33:49.747Z,6.13
2023-05-08T21:36:16.848Z,6.23
2023-05-08T21:38:43.550Z,6.55
2023-05-08T21:41:10.218Z,6.68
2023-05-08T21:43:37.352Z,5.57
2023-05-08T21:46:05.122Z,5.90
2023-05-08T21:48:32.381Z,6.15
2023-05-08T21:50:59.778Z,6.50
2023-05-08T21:53:26.966Z,7.63
2023-05-08T21:55:53.725Z,9.87
2023-05-08T21:58:20.287Z,8.30
2023-05-08T22:00:47.331Z,9.70
2023-05-08T22:03:14.206Z,9.50
2023-05-08T22:05:40.842Z,9.80
2023-05-08T22:08:08.124Z,7.90
2023-05-08T22:10:35.192Z,9.20
2023-05-08T22:13:02.462Z,8.27
2023-05-08T22:15:30.924Z,7.70
2023-05-08T22:17:58.286Z,13.27
2023-05-08T22:20:25.277Z,12.17
2023-05-08T22:22:52.774Z,14.97
2023-05-08T22:25:20.067Z,11.30
2023-05-08T22:27:47.257Z,15.90
2023-05-08T22:30:14.446Z,15.17
2023-05-08T22:32:41.455Z,17.00
2023-05-08T22:35:08.607Z,12.37
2023-05-08T22:37:38.740Z,8.63
2023-05-08T22:40:06.103Z,8.03
2023-05-08T22:42:33.287Z,8.03
2023-05-08T22:45:00.304Z,7.93
2023-05-08T22:47:27.475Z,7.27
2023-05-08T22:49:54.483Z,7.27
2023-05-08T22:52:21.592Z,6.37
2023-05-08T22:54:48.599Z,5.00
2023-05-08T22:57:15.612Z,6.57
2023-05-08T22:59:42.183Z,5.87
2023-05-08T23:02:09.294Z,6.57
2023-05-08T23:04:36.610Z,5.53
2023-05-08T23:07:04.221Z,6.93
2023-05-08T23:09:31.474Z,7.80
2023-05-08T23:11:58.549Z,9.43
2023-05-08T23:14:25.164Z,8.33
2023-05-08T23:16:52.191Z,8.53
2023-05-08T23:19:19.268Z,6.60
2023-05-08T23:21:46.373Z,5.87
2023-05-08T23:24:13.410Z,6.33
2023-05-08T23:26:42.145Z,5.17
2023-05-08T23:29:09.179Z,5.30
2023-05-08T23:31:36.296Z,5.03
2023-05-08T23:34:03.240Z,4.50
2023-05-08T23:36:30.288Z,5.27
2023-05-08T23:38:57.473Z,5.13
2023-05-08T23:41:24.627Z,6.00
2023-05-08T23:43:51.649Z,6.70
2023-05-08T23:46:18.717Z,6.60
2023-05-08T23:48:45.746Z,7.73
2023-05-08T23:51:12.725Z,8.00
2023-05-08T23:53:39.761Z,7.80
2023-05-08T23:56:06.971Z,11.57
2023-05-08T23:58:33.993Z,9.70
